hwlogo.jpg (8581 bytes)
Home Your Weather Products Services Weather On Your Site Contact
HW Version Logo
Weather Info
Your Weather (Options)
Canadian Weather
International Weather
Enter your " Place, State", US Zip Code or ICAO:  
Forecast Information Radar Information
Arviat, Nunavut, Canada  Lat: 61.08N, Lon: 94.05W
ICAO Used: CYEK
Current Conditions
Updated: 9:00 AM CST TUE FEB 20 2018
Sun & Moon Information
Clear
Clear
Temp: -38°C
Humidity: 59%
Wind Speed: WNW 7 MPH
Barometer: 1029 mb
Dewpoint: -43°C
Heat Index: -38°C
Wind Chill: -49°C
Civil Twilight: 7:00 AM CST Moon Phase:
Waxing Crescent Moon
Sunrise: 7:45 AM CST
Sunset: 5:14 PM CST
Civil Twilight: 5:59 PM CST
Forecast for Arviat, NU:
(Forecast based on TAF for )
0800 AM CST WED FEB 21 2018
  
MORNING AFTERNOON EVENING OVERNIGHT
Fair Fair Fair Fair
ZoneCast:
Dated: 0800 AM CST WED FEB 21 2018
Morning...Becoming fair winds variable in direction at 3 mph.

Afternoon...Fair winds variable in direction at 3 mph.

Evening...Fair winds variable in direction at 3 mph.

Overnight...Fair winds variable in direction at 3 mph.

Original Encoded TAF:
Dated: 0800 AM CST WED FEB 21 2018
2018/02/20 13:12
TAF 
      AMD TAF 
      AMD CYEK 201311Z 2013/2024 34010KT P6SM SKC 
      BECMG 2014/2016 VRB03KT 
      RMK NXT FCST BY 201800Z